sensor_id;sensor_type;location;lat;lon;timestamp;P1;durP1;ratioP1;P2;durP2;ratioP2
12348;SDS011;5974;42.710;27.258;2024-01-11T08:44:15;15.10;;;10.90;;
12348;SDS011;5974;42.710;27.258;2024-01-11T08:46:43;16.30;;;10.80;;
12348;SDS011;5974;42.710;27.258;2024-01-11T08:49:10;16.67;;;10.80;;
12348;SDS011;5974;42.710;27.258;2024-01-11T08:51:36;17.80;;;9.83;;
12348;SDS011;5974;42.710;27.258;2024-01-11T08:54:03;19.33;;;9.97;;
12348;SDS011;5974;42.710;27.258;2024-01-11T08:56:33;12.93;;;8.23;;
12348;SDS011;5974;42.710;27.258;2024-01-11T08:59:00;11.27;;;7.60;;
12348;SDS011;5974;42.710;27.258;2024-01-11T09:01:29;8.93;;;5.47;;
12348;SDS011;5974;42.710;27.258;2024-01-11T09:03:57;9.70;;;5.80;;
12348;SDS011;5974;42.710;27.258;2024-01-11T09:06:24;9.23;;;7.10;;
12348;SDS011;5974;42.710;27.258;2024-01-11T09:08:51;10.47;;;6.77;;
12348;SDS011;5974;42.710;27.258;2024-01-11T09:11:17;12.30;;;7.03;;
12348;SDS011;5974;42.710;27.258;2024-01-11T09:13:44;7.47;;;6.03;;
12348;SDS011;5974;42.710;27.258;2024-01-11T09:16:13;7.23;;;5.50;;
12348;SDS011;5974;42.710;27.258;2024-01-11T09:18:42;8.67;;;5.20;;
12348;SDS011;5974;42.710;27.258;2024-01-11T09:21:09;11.67;;;7.90;;
12348;SDS011;5974;42.710;27.258;2024-01-11T09:23:37;12.77;;;8.67;;
12348;SDS011;5974;42.710;27.258;2024-01-11T09:26:04;8.83;;;6.73;;
12348;SDS011;5974;42.710;27.258;2024-01-11T09:28:31;8.27;;;6.03;;
12348;SDS011;5974;42.710;27.258;2024-01-11T09:30:57;6.13;;;4.73;;
12348;SDS011;5974;42.710;27.258;2024-01-11T09:33:26;11.53;;;5.13;;
12348;SDS011;5974;42.710;27.258;2024-01-11T09:35:55;7.30;;;5.63;;
12348;SDS011;5974;42.710;27.258;2024-01-11T09:38:22;13.47;;;9.23;;
12348;SDS011;5974;42.710;27.258;2024-01-11T09:40:49;14.00;;;10.07;;
12348;SDS011;5974;42.710;27.258;2024-01-11T09:43:26;16.23;;;10.07;;
12348;SDS011;5974;42.710;27.258;2024-01-11T09:45:53;10.83;;;7.73;;
12348;SDS011;5974;42.710;27.258;2024-01-11T09:48:21;8.80;;;6.37;;
12348;SDS011;5974;42.710;27.258;2024-01-11T09:50:50;12.87;;;8.23;;
12348;SDS011;5974;42.710;27.258;2024-01-11T09:53:21;13.97;;;9.17;;
12348;SDS011;5974;42.710;27.258;2024-01-11T09:55:50;13.03;;;9.10;;
12348;SDS011;5974;42.710;27.258;2024-01-11T09:58:18;8.67;;;6.00;;
12348;SDS011;5974;42.710;27.258;2024-01-11T10:00:46;10.73;;;8.07;;
12348;SDS011;5974;42.710;27.258;2024-01-11T10:03:17;12.00;;;6.43;;
12348;SDS011;5974;42.710;27.258;2024-01-11T10:05:44;13.30;;;8.87;;
12348;SDS011;5974;42.710;27.258;2024-01-11T10:08:12;9.20;;;6.40;;
12348;SDS011;5974;42.710;27.258;2024-01-11T10:10:41;7.70;;;6.13;;
12348;SDS011;5974;42.710;27.258;2024-01-11T10:13:07;11.10;;;7.37;;
12348;SDS011;5974;42.710;27.258;2024-01-11T10:15:34;8.87;;;6.50;;
12348;SDS011;5974;42.710;27.258;2024-01-11T10:18:01;8.87;;;7.77;;
12348;SDS011;5974;42.710;27.258;2024-01-11T10:20:28;14.33;;;7.60;;
12348;SDS011;5974;42.710;27.258;2024-01-11T10:22:57;10.83;;;7.00;;
12348;SDS011;5974;42.710;27.258;2024-01-11T10:25:24;7.47;;;5.43;;
12348;SDS011;5974;42.710;27.258;2024-01-11T10:27:52;8.43;;;6.70;;
12348;SDS011;5974;42.710;27.258;2024-01-11T10:30:18;9.10;;;7.80;;
12348;SDS011;5974;42.710;27.258;2024-01-11T10:32:47;11.83;;;8.27;;
12348;SDS011;5974;42.710;27.258;2024-01-11T10:35:15;11.50;;;7.43;;
12348;SDS011;5974;42.710;27.258;2024-01-11T10:37:43;13.43;;;8.17;;
12348;SDS011;5974;42.710;27.258;2024-01-11T10:40:11;12.00;;;7.33;;
12348;SDS011;5974;42.710;27.258;2024-01-11T10:42:41;12.07;;;8.00;;
12348;SDS011;5974;42.710;27.258;2024-01-11T10:45:11;12.63;;;8.13;;
12348;SDS011;5974;42.710;27.258;2024-01-11T10:47:42;9.70;;;7.67;;
12348;SDS011;5974;42.710;27.258;2024-01-11T10:50:16;10.57;;;7.50;;
12348;SDS011;5974;42.710;27.258;2024-01-11T10:52:48;7.10;;;6.30;;
12348;SDS011;5974;42.710;27.258;2024-01-11T10:55:23;10.40;;;8.00;;
12348;SDS011;5974;42.710;27.258;2024-01-11T10:57:51;13.90;;;9.43;;
12348;SDS011;5974;42.710;27.258;2024-01-11T11:00:21;13.17;;;8.83;;
12348;SDS011;5974;42.710;27.258;2024-01-11T11:02:49;9.97;;;7.10;;
12348;SDS011;5974;42.710;27.258;2024-01-11T11:05:18;11.93;;;8.80;;
12348;SDS011;5974;42.710;27.258;2024-01-11T11:07:47;15.77;;;8.57;;
12348;SDS011;5974;42.710;27.258;2024-01-11T11:10:15;15.03;;;8.07;;
12348;SDS011;5974;42.710;27.258;2024-01-11T11:12:44;13.53;;;7.67;;
12348;SDS011;5974;42.710;27.258;2024-01-11T11:15:12;11.37;;;9.00;;
12348;SDS011;5974;42.710;27.258;2024-01-11T11:17:41;14.30;;;9.50;;
12348;SDS011;5974;42.710;27.258;2024-01-11T11:20:10;18.33;;;10.57;;
12348;SDS011;5974;42.710;27.258;2024-01-11T11:22:39;11.17;;;8.80;;
12348;SDS011;5974;42.710;27.258;2024-01-11T11:25:08;11.57;;;7.37;;
12348;SDS011;5974;42.710;27.258;2024-01-11T11:27:35;14.23;;;9.53;;
12348;SDS011;5974;42.710;27.258;2024-01-11T11:30:03;14.50;;;7.53;;
12348;SDS011;5974;42.710;27.258;2024-01-11T11:32:37;10.13;;;8.43;;
12348;SDS011;5974;42.710;27.258;2024-01-11T11:35:07;10.87;;;7.20;;
12348;SDS011;5974;42.710;27.258;2024-01-11T11:37:36;8.63;;;6.97;;
12348;SDS011;5974;42.710;27.258;2024-01-11T11:40:03;8.07;;;6.33;;
12348;SDS011;5974;42.710;27.258;2024-01-11T11:42:31;9.80;;;7.30;;
12348;SDS011;5974;42.710;27.258;2024-01-11T11:45:00;9.73;;;6.90;;
12348;SDS011;5974;42.710;27.258;2024-01-11T11:47:32;11.40;;;8.63;;
12348;SDS011;5974;42.710;27.258;2024-01-11T11:50:03;10.80;;;7.47;;
12348;SDS011;5974;42.710;27.258;2024-01-11T11:52:33;6.43;;;4.90;;
12348;SDS011;5974;42.710;27.258;2024-01-11T11:55:02;12.40;;;9.03;;
12348;SDS011;5974;42.710;27.258;2024-01-11T11:57:29;9.67;;;5.83;;
12348;SDS011;5974;42.710;27.258;2024-01-11T11:59:56;10.60;;;7.30;;
12348;SDS011;5974;42.710;27.258;2024-01-11T12:02:24;11.40;;;7.23;;
12348;SDS011;5974;42.710;27.258;2024-01-11T12:04:52;7.70;;;4.73;;
12348;SDS011;5974;42.710;27.258;2024-01-11T12:07:19;3.30;;;3.00;;
12348;SDS011;5974;42.710;27.258;2024-01-11T12:09:49;9.53;;;7.13;;
12348;SDS011;5974;42.710;27.258;2024-01-11T12:12:17;10.33;;;6.70;;
12348;SDS011;5974;42.710;27.258;2024-01-11T12:14:46;10.67;;;6.80;;
12348;SDS011;5974;42.710;27.258;2024-01-11T12:17:14;6.63;;;5.03;;
12348;SDS011;5974;42.710;27.258;2024-01-11T12:19:40;5.13;;;4.30;;
12348;SDS011;5974;42.710;27.258;2024-01-11T12:22:07;5.33;;;4.00;;
12348;SDS011;5974;42.710;27.258;2024-01-11T12:24:34;8.07;;;5.73;;
12348;SDS011;5974;42.710;27.258;2024-01-11T12:27:02;5.40;;;4.17;;
12348;SDS011;5974;42.710;27.258;2024-01-11T12:29:29;6.43;;;4.60;;
12348;SDS011;5974;42.710;27.258;2024-01-11T12:31:56;10.00;;;6.13;;
12348;SDS011;5974;42.710;27.258;2024-01-11T12:34:24;8.27;;;4.53;;
12348;SDS011;5974;42.710;27.258;2024-01-11T12:36:51;10.33;;;5.83;;
12348;SDS011;5974;42.710;27.258;2024-01-11T12:39:20;6.90;;;4.50;;
12348;SDS011;5974;42.710;27.258;2024-01-11T12:41:49;10.77;;;5.73;;
12348;SDS011;5974;42.710;27.258;2024-01-11T12:44:18;10.17;;;5.60;;
12348;SDS011;5974;42.710;27.258;2024-01-11T12:46:47;11.50;;;5.53;;
12348;SDS011;5974;42.710;27.258;2024-01-11T12:49:15;11.57;;;6.90;;
12348;SDS011;5974;42.710;27.258;2024-01-11T12:51:41;8.33;;;5.73;;
12348;SDS011;5974;42.710;27.258;2024-01-11T12:54:10;9.37;;;5.63;;
12348;SDS011;5974;42.710;27.258;2024-01-11T12:56:42;8.67;;;6.57;;
12348;SDS011;5974;42.710;27.258;2024-01-11T12:59:09;10.47;;;7.30;;
12348;SDS011;5974;42.710;27.258;2024-01-11T13:01:38;12.13;;;7.50;;
12348;SDS011;5974;42.710;27.258;2024-01-11T13:04:07;15.53;;;8.10;;
12348;SDS011;5974;42.710;27.258;2024-01-11T13:06:35;27.13;;;18.17;;
12348;SDS011;5974;42.710;27.258;2024-01-11T13:09:02;13.27;;;8.10;;
12348;SDS011;5974;42.710;27.258;2024-01-11T13:11:29;7.03;;;6.13;;
12348;SDS011;5974;42.710;27.258;2024-01-11T13:13:56;9.93;;;8.23;;
12348;SDS011;5974;42.710;27.258;2024-01-11T13:16:26;11.73;;;8.13;;
12348;SDS011;5974;42.710;27.258;2024-01-11T13:18:54;14.97;;;7.87;;
12348;SDS011;5974;42.710;27.258;2024-01-11T13:21:21;12.63;;;6.83;;
12348;SDS011;5974;42.710;27.258;2024-01-11T13:23:47;11.77;;;7.67;;
12348;SDS011;5974;42.710;27.258;2024-01-11T13:26:14;17.90;;;7.47;;
12348;SDS011;5974;42.710;27.258;2024-01-11T13:28:41;13.03;;;7.53;;
12348;SDS011;5974;42.710;27.258;2024-01-11T13:31:08;12.60;;;7.73;;
12348;SDS011;5974;42.710;27.258;2024-01-11T13:33:36;14.83;;;9.53;;
12348;SDS011;5974;42.710;27.258;2024-01-11T13:36:05;13.23;;;9.00;;
12348;SDS011;5974;42.710;27.258;2024-01-11T13:38:34;6.77;;;6.07;;
12348;SDS011;5974;42.710;27.258;2024-01-11T13:41:01;16.63;;;6.20;;
12348;SDS011;5974;42.710;27.258;2024-01-11T13:43:28;11.10;;;7.87;;
12348;SDS011;5974;42.710;27.258;2024-01-11T13:45:54;11.30;;;8.13;;
12348;SDS011;5974;42.710;27.258;2024-01-11T13:48:21;12.80;;;7.67;;
12348;SDS011;5974;42.710;27.258;2024-01-11T13:50:48;12.47;;;8.03;;
12348;SDS011;5974;42.710;27.258;2024-01-11T13:53:16;19.03;;;9.50;;
12348;SDS011;5974;42.710;27.258;2024-01-11T13:55:43;19.30;;;7.60;;
12348;SDS011;5974;42.710;27.258;2024-01-11T13:58:10;12.43;;;7.70;;
12348;SDS011;5974;42.710;27.258;2024-01-11T14:00:37;13.13;;;7.97;;
12348;SDS011;5974;42.710;27.258;2024-01-11T14:03:04;10.53;;;6.87;;
12348;SDS011;5974;42.710;27.258;2024-01-11T14:05:31;10.87;;;6.67;;
12348;SDS011;5974;42.710;27.258;2024-01-11T14:07:58;9.83;;;5.83;;
12348;SDS011;5974;42.710;27.258;2024-01-11T14:10:27;9.90;;;6.47;;
12348;SDS011;5974;42.710;27.258;2024-01-11T14:12:54;13.27;;;7.77;;
12348;SDS011;5974;42.710;27.258;2024-01-11T14:15:21;13.13;;;7.23;;
12348;SDS011;5974;42.710;27.258;2024-01-11T14:17:49;13.47;;;7.13;;
12348;SDS011;5974;42.710;27.258;2024-01-11T14:20:16;12.40;;;6.37;;
12348;SDS011;5974;42.710;27.258;2024-01-11T14:22:43;9.60;;;6.60;;
12348;SDS011;5974;42.710;27.258;2024-01-11T14:25:14;11.43;;;6.37;;
12348;SDS011;5974;42.710;27.258;2024-01-11T14:27:42;11.63;;;7.33;;
12348;SDS011;5974;42.710;27.258;2024-01-11T14:30:10;11.60;;;6.90;;
12348;SDS011;5974;42.710;27.258;2024-01-11T14:32:37;12.00;;;7.80;;
12348;SDS011;5974;42.710;27.258;2024-01-11T14:35:06;14.07;;;7.97;;
12348;SDS011;5974;42.710;27.258;2024-01-11T14:37:34;10.83;;;7.07;;
12348;SDS011;5974;42.710;27.258;2024-01-11T14:40:02;12.30;;;7.90;;
12348;SDS011;5974;42.710;27.258;2024-01-11T14:42:29;11.03;;;7.00;;
12348;SDS011;5974;42.710;27.258;2024-01-11T14:44:58;11.50;;;6.93;;
12348;SDS011;5974;42.710;27.258;2024-01-11T14:47:25;11.43;;;6.33;;
12348;SDS011;5974;42.710;27.258;2024-01-11T14:49:51;152.17;;;106.43;;
12348;SDS011;5974;42.710;27.258;2024-01-11T14:52:18;10.73;;;7.73;;
12348;SDS011;5974;42.710;27.258;2024-01-11T14:54:45;9.83;;;6.80;;
12348;SDS011;5974;42.710;27.258;2024-01-11T14:57:12;15.17;;;8.60;;
12348;SDS011;5974;42.710;27.258;2024-01-11T14:59:39;12.20;;;7.70;;
12348;SDS011;5974;42.710;27.258;2024-01-11T15:02:07;10.87;;;7.73;;
12348;SDS011;5974;42.710;27.258;2024-01-11T15:04:34;14.23;;;9.33;;
12348;SDS011;5974;42.710;27.258;2024-01-11T15:07:01;11.00;;;7.17;;
12348;SDS011;5974;42.710;27.258;2024-01-11T15:09:27;14.77;;;7.30;;
12348;SDS011;5974;42.710;27.258;2024-01-11T15:11:55;15.77;;;8.23;;
12348;SDS011;5974;42.710;27.258;2024-01-11T15:14:21;11.03;;;7.97;;
12348;SDS011;5974;42.710;27.258;2024-01-11T15:16:48;10.93;;;7.30;;
12348;SDS011;5974;42.710;27.258;2024-01-11T15:19:16;9.87;;;6.87;;
12348;SDS011;5974;42.710;27.258;2024-01-11T15:21:43;12.77;;;8.80;;
12348;SDS011;5974;42.710;27.258;2024-01-11T15:24:10;11.50;;;7.63;;
12348;SDS011;5974;42.710;27.258;2024-01-11T15:26:37;11.13;;;7.13;;
12348;SDS011;5974;42.710;27.258;2024-01-11T15:29:04;15.77;;;7.60;;
12348;SDS011;5974;42.710;27.258;2024-01-11T15:31:48;12.60;;;8.17;;
12348;SDS011;5974;42.710;27.258;2024-01-11T15:34:16;11.57;;;7.97;;
12348;SDS011;5974;42.710;27.258;2024-01-11T15:36:43;13.37;;;9.20;;
12348;SDS011;5974;42.710;27.258;2024-01-11T15:39:10;17.60;;;10.07;;
12348;SDS011;5974;42.710;27.258;2024-01-11T15:41:37;15.40;;;9.50;;
12348;SDS011;5974;42.710;27.258;2024-01-11T15:44:03;12.93;;;8.47;;
12348;SDS011;5974;42.710;27.258;2024-01-11T15:46:30;15.17;;;9.80;;
12348;SDS011;5974;42.710;27.258;2024-01-11T15:48:57;17.97;;;9.97;;
12348;SDS011;5974;42.710;27.258;2024-01-11T15:51:25;54.60;;;41.80;;
12348;SDS011;5974;42.710;27.258;2024-01-11T15:53:52;27.73;;;19.33;;
12348;SDS011;5974;42.710;27.258;2024-01-11T15:56:18;36.00;;;23.83;;
12348;SDS011;5974;42.710;27.258;2024-01-11T15:58:45;29.07;;;17.23;;
12348;SDS011;5974;42.710;27.258;2024-01-11T16:01:13;22.47;;;12.77;;
12348;SDS011;5974;42.710;27.258;2024-01-11T16:03:39;21.03;;;12.23;;
12348;SDS011;5974;42.710;27.258;2024-01-11T16:06:06;19.23;;;12.57;;
12348;SDS011;5974;42.710;27.258;2024-01-11T16:08:34;16.63;;;11.13;;
12348;SDS011;5974;42.710;27.258;2024-01-11T16:11:01;17.20;;;10.00;;
12348;SDS011;5974;42.710;27.258;2024-01-11T16:13:29;16.77;;;10.47;;
12348;SDS011;5974;42.710;27.258;2024-01-11T16:15:55;13.90;;;9.47;;
12348;SDS011;5974;42.710;27.258;2024-01-11T16:18:23;14.17;;;10.10;;
12348;SDS011;5974;42.710;27.258;2024-01-11T16:20:50;29.30;;;18.37;;
12348;SDS011;5974;42.710;27.258;2024-01-11T16:23:19;18.93;;;12.13;;
12348;SDS011;5974;42.710;27.258;2024-01-11T16:25:47;26.17;;;16.00;;
12348;SDS011;5974;42.710;27.258;2024-01-11T16:28:14;37.50;;;24.50;;
12348;SDS011;5974;42.710;27.258;2024-01-11T16:30:41;118.20;;;71.53;;
12348;SDS011;5974;42.710;27.258;2024-01-11T16:33:10;122.60;;;70.23;;
12348;SDS011;5974;42.710;27.258;2024-01-11T16:35:37;125.27;;;75.23;;
12348;SDS011;5974;42.710;27.258;2024-01-11T16:38:03;145.63;;;85.53;;
12348;SDS011;5974;42.710;27.258;2024-01-11T16:40:30;151.87;;;89.20;;
12348;SDS011;5974;42.710;27.258;2024-01-11T16:42:59;142.47;;;84.40;;
12348;SDS011;5974;42.710;27.258;2024-01-11T16:45:26;187.53;;;112.53;;
12348;SDS011;5974;42.710;27.258;2024-01-11T16:47:53;201.23;;;120.80;;
12348;SDS011;5974;42.710;27.258;2024-01-11T16:50:20;228.53;;;127.93;;
12348;SDS011;5974;42.710;27.258;2024-01-11T16:52:47;226.93;;;130.70;;
12348;SDS011;5974;42.710;27.258;2024-01-11T16:55:14;219.20;;;124.20;;
12348;SDS011;5974;42.710;27.258;2024-01-11T16:57:40;211.60;;;116.43;;
12348;SDS011;5974;42.710;27.258;2024-01-11T17:00:09;203.20;;;114.83;;
12348;SDS011;5974;42.710;27.258;2024-01-11T17:02:36;203.50;;;117.33;;
12348;SDS011;5974;42.710;27.258;2024-01-11T17:05:03;224.53;;;124.50;;
12348;SDS011;5974;42.710;27.258;2024-01-11T17:07:30;232.07;;;125.43;;
12348;SDS011;5974;42.710;27.258;2024-01-11T17:09:57;242.07;;;130.90;;
12348;SDS011;5974;42.710;27.258;2024-01-11T17:12:24;229.63;;;127.00;;
12348;SDS011;5974;42.710;27.258;2024-01-11T17:14:50;234.77;;;129.30;;
12348;SDS011;5974;42.710;27.258;2024-01-11T17:17:18;264.13;;;137.10;;
12348;SDS011;5974;42.710;27.258;2024-01-11T17:19:45;262.17;;;132.87;;
12348;SDS011;5974;42.710;27.258;2024-01-11T17:22:12;227.50;;;121.37;;
12348;SDS011;5974;42.710;27.258;2024-01-11T17:24:40;230.23;;;123.13;;
12348;SDS011;5974;42.710;27.258;2024-01-11T17:27:07;262.77;;;138.13;;
12348;SDS011;5974;42.710;27.258;2024-01-11T17:29:34;256.97;;;137.40;;
12348;SDS011;5974;42.710;27.258;2024-01-11T17:32:02;265.23;;;140.03;;
12348;SDS011;5974;42.710;27.258;2024-01-11T17:34:31;304.37;;;157.27;;
12348;SDS011;5974;42.710;27.258;2024-01-11T17:36:58;290.10;;;154.13;;
12348;SDS011;5974;42.710;27.258;2024-01-11T17:39:25;264.17;;;144.10;;
12348;SDS011;5974;42.710;27.258;2024-01-11T17:41:52;254.20;;;138.50;;
12348;SDS011;5974;42.710;27.258;2024-01-11T17:44:19;272.73;;;147.77;;
12348;SDS011;5974;42.710;27.258;2024-01-11T17:46:49;187.17;;;99.67;;
12348;SDS011;5974;42.710;27.258;2024-01-11T17:49:16;212.30;;;113.40;;
12348;SDS011;5974;42.710;27.258;2024-01-11T17:51:44;139.03;;;75.47;;
12348;SDS011;5974;42.710;27.258;2024-01-11T17:54:11;166.23;;;91.30;;
12348;SDS011;5974;42.710;27.258;2024-01-11T17:56:38;169.90;;;93.50;;
12348;SDS011;5974;42.710;27.258;2024-01-11T17:59:07;158.87;;;90.13;;
12348;SDS011;5974;42.710;27.258;2024-01-11T18:01:34;137.13;;;75.47;;
12348;SDS011;5974;42.710;27.258;2024-01-11T18:04:02;124.07;;;67.17;;
12348;SDS011;5974;42.710;27.258;2024-01-11T18:06:29;119.50;;;64.70;;
12348;SDS011;5974;42.710;27.258;2024-01-11T18:08:58;171.80;;;90.43;;
12348;SDS011;5974;42.710;27.258;2024-01-11T18:11:25;135.23;;;73.30;;
12348;SDS011;5974;42.710;27.258;2024-01-11T18:13:51;178.27;;;97.57;;
12348;SDS011;5974;42.710;27.258;2024-01-11T18:16:19;121.70;;;65.20;;
12348;SDS011;5974;42.710;27.258;2024-01-11T18:18:46;126.27;;;65.57;;
12348;SDS011;5974;42.710;27.258;2024-01-11T18:21:13;125.97;;;69.30;;
12348;SDS011;5974;42.710;27.258;2024-01-11T18:23:40;138.43;;;74.77;;
12348;SDS011;5974;42.710;27.258;2024-01-11T18:26:09;137.83;;;75.70;;
12348;SDS011;5974;42.710;27.258;2024-01-11T18:28:36;139.90;;;74.17;;
12348;SDS011;5974;42.710;27.258;2024-01-11T18:31:03;113.60;;;64.23;;
12348;SDS011;5974;42.710;27.258;2024-01-11T18:33:29;112.00;;;63.87;;
12348;SDS011;5974;42.710;27.258;2024-01-11T18:35:56;70.10;;;40.97;;
12348;SDS011;5974;42.710;27.258;2024-01-11T18:38:23;56.80;;;33.80;;
12348;SDS011;5974;42.710;27.258;2024-01-11T18:40:50;63.27;;;37.93;;
12348;SDS011;5974;42.710;27.258;2024-01-11T18:43:18;83.97;;;47.13;;
12348;SDS011;5974;42.710;27.258;2024-01-11T18:45:45;67.77;;;40.13;;
12348;SDS011;5974;42.710;27.258;2024-01-11T18:48:11;79.63;;;46.63;;
12348;SDS011;5974;42.710;27.258;2024-01-11T18:50:38;79.87;;;45.50;;
12348;SDS011;5974;42.710;27.258;2024-01-11T18:53:05;51.63;;;32.13;;
12348;SDS011;5974;42.710;27.258;2024-01-11T18:55:32;48.83;;;30.53;;
12348;SDS011;5974;42.710;27.258;2024-01-11T18:57:58;80.70;;;47.27;;
12348;SDS011;5974;42.710;27.258;2024-01-11T19:00:27;64.43;;;39.83;;
12348;SDS011;5974;42.710;27.258;2024-01-11T19:02:54;60.53;;;34.97;;
12348;SDS011;5974;42.710;27.258;2024-01-11T19:05:20;52.63;;;33.00;;
12348;SDS011;5974;42.710;27.258;2024-01-11T19:07:48;58.83;;;31.80;;
12348;SDS011;5974;42.710;27.258;2024-01-11T19:10:15;54.60;;;30.27;;
12348;SDS011;5974;42.710;27.258;2024-01-11T19:12:42;48.67;;;28.73;;
12348;SDS011;5974;42.710;27.258;2024-01-11T19:15:09;38.40;;;22.40;;
12348;SDS011;5974;42.710;27.258;2024-01-11T19:17:37;30.63;;;19.90;;
12348;SDS011;5974;42.710;27.258;2024-01-11T19:20:05;26.47;;;17.67;;
12348;SDS011;5974;42.710;27.258;2024-01-11T19:22:32;24.37;;;16.40;;
12348;SDS011;5974;42.710;27.258;2024-01-11T19:24:59;21.33;;;13.10;;
12348;SDS011;5974;42.710;27.258;2024-01-11T19:27:27;20.47;;;13.53;;
12348;SDS011;5974;42.710;27.258;2024-01-11T19:29:54;17.33;;;11.47;;
12348;SDS011;5974;42.710;27.258;2024-01-11T19:32:22;17.00;;;11.33;;
12348;SDS011;5974;42.710;27.258;2024-01-11T19:34:50;20.37;;;11.97;;
12348;SDS011;5974;42.710;27.258;2024-01-11T19:37:17;17.70;;;10.50;;
12348;SDS011;5974;42.710;27.258;2024-01-11T19:39:43;14.97;;;10.03;;
12348;SDS011;5974;42.710;27.258;2024-01-11T19:42:12;14.93;;;9.70;;
12348;SDS011;5974;42.710;27.258;2024-01-11T19:44:39;14.23;;;10.47;;
12348;SDS011;5974;42.710;27.258;2024-01-11T19:47:06;13.40;;;9.50;;
12348;SDS011;5974;42.710;27.258;2024-01-11T19:49:33;11.93;;;7.57;;
12348;SDS011;5974;42.710;27.258;2024-01-11T19:52:02;9.90;;;8.30;;
12348;SDS011;5974;42.710;27.258;2024-01-11T19:54:29;10.60;;;8.07;;
12348;SDS011;5974;42.710;27.258;2024-01-11T19:56:56;10.43;;;7.37;;
12348;SDS011;5974;42.710;27.258;2024-01-11T19:59:23;19.90;;;16.17;;
12348;SDS011;5974;42.710;27.258;2024-01-11T20:01:50;12.20;;;9.73;;
12348;SDS011;5974;42.710;27.258;2024-01-11T20:04:17;10.63;;;7.80;;
12348;SDS011;5974;42.710;27.258;2024-01-11T20:06:45;13.17;;;8.03;;
12348;SDS011;5974;42.710;27.258;2024-01-11T20:09:13;17.50;;;7.53;;
12348;SDS011;5974;42.710;27.258;2024-01-11T20:11:40;10.07;;;6.77;;
12348;SDS011;5974;42.710;27.258;2024-01-11T20:14:07;13.23;;;7.57;;
12348;SDS011;5974;42.710;27.258;2024-01-11T20:16:35;10.27;;;7.07;;
12348;SDS011;5974;42.710;27.258;2024-01-11T20:19:01;9.97;;;6.50;;
12348;SDS011;5974;42.710;27.258;2024-01-11T20:21:28;9.90;;;7.40;;
12348;SDS011;5974;42.710;27.258;2024-01-11T20:23:55;10.23;;;6.37;;
12348;SDS011;5974;42.710;27.258;2024-01-11T20:26:23;10.70;;;7.33;;
12348;SDS011;5974;42.710;27.258;2024-01-11T20:28:50;13.23;;;7.03;;
12348;SDS011;5974;42.710;27.258;2024-01-11T20:31:16;11.37;;;7.13;;
12348;SDS011;5974;42.710;27.258;2024-01-11T20:33:43;9.20;;;6.37;;
12348;SDS011;5974;42.710;27.258;2024-01-11T20:36:10;8.87;;;6.60;;
12348;SDS011;5974;42.710;27.258;2024-01-11T20:38:36;13.13;;;6.87;;
12348;SDS011;5974;42.710;27.258;2024-01-11T20:41:03;9.77;;;6.87;;
12348;SDS011;5974;42.710;27.258;2024-01-11T20:43:31;10.17;;;6.70;;
12348;SDS011;5974;42.710;27.258;2024-01-11T20:45:58;10.07;;;6.57;;
12348;SDS011;5974;42.710;27.258;2024-01-11T20:48:25;10.03;;;6.17;;
12348;SDS011;5974;42.710;27.258;2024-01-11T20:50:52;9.23;;;6.03;;
12348;SDS011;5974;42.710;27.258;2024-01-11T20:53:19;9.07;;;6.03;;
12348;SDS011;5974;42.710;27.258;2024-01-11T20:55:46;9.13;;;6.00;;
12348;SDS011;5974;42.710;27.258;2024-01-11T20:58:13;12.20;;;6.33;;
12348;SDS011;5974;42.710;27.258;2024-01-11T21:00:41;11.53;;;7.80;;
12348;SDS011;5974;42.710;27.258;2024-01-11T21:03:08;11.40;;;8.20;;
12348;SDS011;5974;42.710;27.258;2024-01-11T21:05:35;11.77;;;8.30;;
12348;SDS011;5974;42.710;27.258;2024-01-11T21:08:02;12.53;;;8.07;;
12348;SDS011;5974;42.710;27.258;2024-01-11T21:10:29;10.30;;;6.80;;
12348;SDS011;5974;42.710;27.258;2024-01-11T21:12:55;8.20;;;6.30;;
12348;SDS011;5974;42.710;27.258;2024-01-11T21:15:22;10.27;;;6.90;;
12348;SDS011;5974;42.710;27.258;2024-01-11T21:17:50;18.00;;;10.73;;
12348;SDS011;5974;42.710;27.258;2024-01-11T21:20:17;21.40;;;11.43;;
12348;SDS011;5974;42.710;27.258;2024-01-11T21:22:43;21.53;;;13.37;;
12348;SDS011;5974;42.710;27.258;2024-01-11T21:25:12;19.77;;;11.03;;
12348;SDS011;5974;42.710;27.258;2024-01-11T21:27:38;12.70;;;8.37;;
12348;SDS011;5974;42.710;27.258;2024-01-11T21:30:06;13.07;;;9.17;;
12348;SDS011;5974;42.710;27.258;2024-01-11T21:32:33;12.10;;;8.17;;
12348;SDS011;5974;42.710;27.258;2024-01-11T21:35:01;10.77;;;7.27;;
12348;SDS011;5974;42.710;27.258;2024-01-11T21:37:29;10.80;;;7.53;;
12348;SDS011;5974;42.710;27.258;2024-01-11T21:39:55;16.17;;;9.30;;
12348;SDS011;5974;42.710;27.258;2024-01-11T21:42:22;14.97;;;8.90;;
12348;SDS011;5974;42.710;27.258;2024-01-11T21:44:51;13.87;;;8.40;;
12348;SDS011;5974;42.710;27.258;2024-01-11T21:47:17;11.87;;;8.03;;
12348;SDS011;5974;42.710;27.258;2024-01-11T21:49:44;14.00;;;8.97;;
12348;SDS011;5974;42.710;27.258;2024-01-11T21:52:12;13.87;;;9.27;;
12348;SDS011;5974;42.710;27.258;2024-01-11T21:54:39;12.70;;;7.33;;
12348;SDS011;5974;42.710;27.258;2024-01-11T21:57:06;12.80;;;8.77;;
12348;SDS011;5974;42.710;27.258;2024-01-11T21:59:33;13.20;;;8.03;;
12348;SDS011;5974;42.710;27.258;2024-01-11T22:02:00;17.60;;;7.80;;
12348;SDS011;5974;42.710;27.258;2024-01-11T22:04:27;14.40;;;9.50;;
12348;SDS011;5974;42.710;27.258;2024-01-11T22:06:54;13.73;;;9.70;;
12348;SDS011;5974;42.710;27.258;2024-01-11T22:09:22;12.70;;;7.77;;
12348;SDS011;5974;42.710;27.258;2024-01-11T22:11:49;13.07;;;7.73;;
12348;SDS011;5974;42.710;27.258;2024-01-11T22:14:16;12.60;;;8.03;;
12348;SDS011;5974;42.710;27.258;2024-01-11T22:16:43;12.60;;;7.40;;
12348;SDS011;5974;42.710;27.258;2024-01-11T22:19:10;12.50;;;8.13;;
12348;SDS011;5974;42.710;27.258;2024-01-11T22:21:37;12.10;;;7.47;;
12348;SDS011;5974;42.710;27.258;2024-01-11T22:24:05;10.63;;;7.43;;
12348;SDS011;5974;42.710;27.258;2024-01-11T22:26:33;12.30;;;8.43;;
12348;SDS011;5974;42.710;27.258;2024-01-11T22:29:00;10.73;;;7.50;;
12348;SDS011;5974;42.710;27.258;2024-01-11T22:31:30;13.37;;;8.40;;
12348;SDS011;5974;42.710;27.258;2024-01-11T22:33:58;12.93;;;7.33;;
12348;SDS011;5974;42.710;27.258;2024-01-11T22:36:25;11.63;;;7.43;;
12348;SDS011;5974;42.710;27.258;2024-01-11T22:38:53;11.47;;;7.10;;
12348;SDS011;5974;42.710;27.258;2024-01-11T22:41:21;11.23;;;7.37;;
12348;SDS011;5974;42.710;27.258;2024-01-11T22:43:49;12.10;;;6.83;;
12348;SDS011;5974;42.710;27.258;2024-01-11T22:46:17;10.97;;;7.07;;
12348;SDS011;5974;42.710;27.258;2024-01-11T22:48:44;11.33;;;6.43;;
12348;SDS011;5974;42.710;27.258;2024-01-11T22:51:11;11.57;;;6.90;;
12348;SDS011;5974;42.710;27.258;2024-01-11T22:53:38;9.77;;;6.80;;
12348;SDS011;5974;42.710;27.258;2024-01-11T22:56:05;8.80;;;6.20;;
12348;SDS011;5974;42.710;27.258;2024-01-11T22:58:31;8.07;;;6.27;;
12348;SDS011;5974;42.710;27.258;2024-01-11T23:01:00;9.67;;;6.17;;
12348;SDS011;5974;42.710;27.258;2024-01-11T23:03:26;7.90;;;5.63;;
12348;SDS011;5974;42.710;27.258;2024-01-11T23:05:54;8.03;;;5.90;;
12348;SDS011;5974;42.710;27.258;2024-01-11T23:08:21;7.57;;;5.67;;
12348;SDS011;5974;42.710;27.258;2024-01-11T23:10:48;8.70;;;5.90;;
12348;SDS011;5974;42.710;27.258;2024-01-11T23:13:14;8.27;;;5.53;;
12348;SDS011;5974;42.710;27.258;2024-01-11T23:15:41;7.90;;;5.47;;